Aleksin, Russia
Current Conditions -  °F | °C
As of 10:00 AM on Friday 28 Nov 2014 (Local Time) from UUMO Reporting Station
Broken Clouds Broken Clouds  
Wind Chill:   Ceiling: 10000
Heat Index: 14°   Visibility: 5mi
Dew Point: 12°   Wind: 7mph
Humidity: 93%   Direction: 90°E
Pressure: 30.56"   Gusts: NA
Location:  54.52°N, 37.09°E
Report Text: UUMO 280700Z 09003MPS 8000 BKN100 M10/M11 Q1035 NOSIG RMKQFE761/1014 26290050
Loading
Personal Weather Stations






























Interactive Weather Map New forecast layout! Learn more

10-Day Weather Forecast

Advertisements
Track Severe Weather on mobile